2CN5 weather

Regional Medical Center Of San Jose H1 Heliport
San Jose, California, United States

Public forecast

Using degrees Fahrenheit for public forecast. Weather courtesy of forecast.io.

METAR (pilot weather report)

Closest report is Reid-Hillview Airport of Santa Clara County, 2.3 nm (4.3 km) SE. Retrieved 2019/06/19 16:50 UTC (11 minutes ago):

KRHV 191650Z 10003KT 10SM SKC 19/13 A2996

TAF (pilot weather forecast)

Closest forecast is Norman Y. Mineta San Jose International Airport, 3.8 nm (7.0 km) W. Retrieved 2019/06/19 12:42 UTC (4 hours ago):

TAF KSJC 191139Z 1912/2012 15008KT P6SM SKC FM191600 VRB05KT P6SM FEW015 FM192000 29008KT P6SM SKC FM200700 15010KT P6SM BKN015